sensor_id;sensor_type;location;lat;lon;timestamp;P1;durP1;ratioP1;P2;durP2;ratioP2
30068;SDS011;16894;49.456;10.644;2022-10-17T00:01:44;7.90;;;6.30;;
30068;SDS011;16894;49.456;10.644;2022-10-17T00:04:10;10.77;;;6.00;;
30068;SDS011;16894;49.456;10.644;2022-10-17T00:06:35;13.67;;;6.03;;
30068;SDS011;16894;49.456;10.644;2022-10-17T00:09:01;17.10;;;6.27;;
30068;SDS011;16894;49.456;10.644;2022-10-17T00:11:28;21.85;;;6.65;;
30068;SDS011;16894;49.456;10.644;2022-10-17T00:13:54;12.83;;;6.07;;
30068;SDS011;16894;49.456;10.644;2022-10-17T00:18:50;25.85;;;12.95;;
30068;SDS011;16894;49.456;10.644;2022-10-17T00:21:16;30.40;;;7.57;;
30068;SDS011;16894;49.456;10.644;2022-10-17T00:23:43;13.55;;;6.72;;
30068;SDS011;16894;49.456;10.644;2022-10-17T00:26:09;45.30;;;8.68;;
30068;SDS011;16894;49.456;10.644;2022-10-17T00:28:35;31.07;;;8.93;;
30068;SDS011;16894;49.456;10.644;2022-10-17T00:31:02;27.30;;;8.07;;
30068;SDS011;16894;49.456;10.644;2022-10-17T00:33:29;18.88;;;7.90;;
30068;SDS011;16894;49.456;10.644;2022-10-17T00:36:13;16.98;;;8.50;;
30068;SDS011;16894;49.456;10.644;2022-10-17T00:38:41;11.73;;;7.93;;
30068;SDS011;16894;49.456;10.644;2022-10-17T00:41:09;17.63;;;8.88;;
30068;SDS011;16894;49.456;10.644;2022-10-17T00:46:18;9.85;;;6.30;;
30068;SDS011;16894;49.456;10.644;2022-10-17T00:48:45;16.55;;;6.93;;
30068;SDS011;16894;49.456;10.644;2022-10-17T00:51:12;8.75;;;6.10;;
30068;SDS011;16894;49.456;10.644;2022-10-17T00:53:38;9.60;;;6.25;;
30068;SDS011;16894;49.456;10.644;2022-10-17T00:56:04;9.20;;;6.55;;
30068;SDS011;16894;49.456;10.644;2022-10-17T00:58:30;10.18;;;6.25;;
30068;SDS011;16894;49.456;10.644;2022-10-17T01:00:56;10.05;;;6.72;;
30068;SDS011;16894;49.456;10.644;2022-10-17T01:03:21;8.63;;;5.83;;
30068;SDS011;16894;49.456;10.644;2022-10-17T01:05:48;13.07;;;5.88;;
30068;SDS011;16894;49.456;10.644;2022-10-17T01:08:14;12.25;;;5.97;;
30068;SDS011;16894;49.456;10.644;2022-10-17T01:13:29;15.38;;;7.38;;
30068;SDS011;16894;49.456;10.644;2022-10-17T01:16:05;17.80;;;7.35;;
30068;SDS011;16894;49.456;10.644;2022-10-17T01:24:28;16.33;;;7.13;;
30068;SDS011;16894;49.456;10.644;2022-10-17T01:30:02;44.80;;;10.48;;
30068;SDS011;16894;49.456;10.644;2022-10-17T01:38:12;52.40;;;9.90;;
30068;SDS011;16894;49.456;10.644;2022-10-17T01:41:09;42.17;;;10.02;;
30068;SDS011;16894;49.456;10.644;2022-10-17T01:43:58;43.13;;;11.60;;
30068;SDS011;16894;49.456;10.644;2022-10-17T01:46:35;45.50;;;10.07;;
30068;SDS011;16894;49.456;10.644;2022-10-17T01:49:03;43.08;;;9.65;;
30068;SDS011;16894;49.456;10.644;2022-10-17T01:51:39;37.63;;;10.48;;
30068;SDS011;16894;49.456;10.644;2022-10-17T01:54:14;19.48;;;9.55;;
30068;SDS011;16894;49.456;10.644;2022-10-17T01:56:50;15.30;;;8.45;;
30068;SDS011;16894;49.456;10.644;2022-10-17T01:59:24;13.02;;;7.32;;
30068;SDS011;16894;49.456;10.644;2022-10-17T02:01:55;25.85;;;6.63;;
30068;SDS011;16894;49.456;10.644;2022-10-17T02:04:23;10.93;;;6.90;;
30068;SDS011;16894;49.456;10.644;2022-10-17T02:06:50;11.18;;;6.15;;
30068;SDS011;16894;49.456;10.644;2022-10-17T02:09:22;12.30;;;6.10;;
30068;SDS011;16894;49.456;10.644;2022-10-17T02:11:54;9.60;;;5.80;;
30068;SDS011;16894;49.456;10.644;2022-10-17T02:25:17;8.68;;;4.80;;
30068;SDS011;16894;49.456;10.644;2022-10-17T02:33:11;8.10;;;4.70;;
30068;SDS011;16894;49.456;10.644;2022-10-17T02:35:42;7.50;;;4.43;;
30068;SDS011;16894;49.456;10.644;2022-10-17T02:38:11;12.02;;;4.55;;
30068;SDS011;16894;49.456;10.644;2022-10-17T02:40:37;9.02;;;4.50;;
30068;SDS011;16894;49.456;10.644;2022-10-17T02:43:05;12.27;;;5.40;;
30068;SDS011;16894;49.456;10.644;2022-10-17T02:45:31;12.07;;;4.90;;
30068;SDS011;16894;49.456;10.644;2022-10-17T02:48:02;22.98;;;5.65;;
30068;SDS011;16894;49.456;10.644;2022-10-17T02:50:56;9.50;;;6.07;;
30068;SDS011;16894;49.456;10.644;2022-10-17T02:56:26;14.45;;;5.55;;
30068;SDS011;16894;49.456;10.644;2022-10-17T02:58:56;7.80;;;5.40;;
30068;SDS011;16894;49.456;10.644;2022-10-17T03:01:24;6.10;;;4.68;;
30068;SDS011;16894;49.456;10.644;2022-10-17T03:06:28;8.57;;;5.32;;
30068;SDS011;16894;49.456;10.644;2022-10-17T03:08:53;6.33;;;4.30;;
30068;SDS011;16894;49.456;10.644;2022-10-17T03:11:19;4.57;;;4.17;;
30068;SDS011;16894;49.456;10.644;2022-10-17T03:13:44;9.83;;;4.73;;
30068;SDS011;16894;49.456;10.644;2022-10-17T03:16:10;7.47;;;5.43;;
30068;SDS011;16894;49.456;10.644;2022-10-17T03:18:54;6.90;;;4.80;;
30068;SDS011;16894;49.456;10.644;2022-10-17T03:21:39;10.30;;;4.72;;
30068;SDS011;16894;49.456;10.644;2022-10-17T03:24:23;11.48;;;4.65;;
30068;SDS011;16894;49.456;10.644;2022-10-17T03:27:07;10.85;;;5.93;;
30068;SDS011;16894;49.456;10.644;2022-10-17T03:29:51;13.30;;;7.07;;
30068;SDS011;16894;49.456;10.644;2022-10-17T03:32:16;14.70;;;5.80;;
30068;SDS011;16894;49.456;10.644;2022-10-17T03:34:42;11.97;;;5.60;;
30068;SDS011;16894;49.456;10.644;2022-10-17T03:37:08;12.53;;;5.83;;
30068;SDS011;16894;49.456;10.644;2022-10-17T03:39:33;16.90;;;6.13;;
30068;SDS011;16894;49.456;10.644;2022-10-17T03:41:59;16.47;;;6.57;;
30068;SDS011;16894;49.456;10.644;2022-10-17T03:44:24;10.97;;;5.53;;
30068;SDS011;16894;49.456;10.644;2022-10-17T03:46:50;9.57;;;6.10;;
30068;SDS011;16894;49.456;10.644;2022-10-17T03:49:15;13.90;;;6.63;;
30068;SDS011;16894;49.456;10.644;2022-10-17T03:51:41;11.97;;;6.00;;
30068;SDS011;16894;49.456;10.644;2022-10-17T03:54:06;12.33;;;5.77;;
30068;SDS011;16894;49.456;10.644;2022-10-17T03:56:32;6.10;;;5.10;;
30068;SDS011;16894;49.456;10.644;2022-10-17T03:58:58;9.03;;;5.57;;
30068;SDS011;16894;49.456;10.644;2022-10-17T04:01:23;11.13;;;5.77;;
30068;SDS011;16894;49.456;10.644;2022-10-17T04:03:52;30.10;;;13.33;;
30068;SDS011;16894;49.456;10.644;2022-10-17T04:06:19;17.75;;;9.27;;
30068;SDS011;16894;49.456;10.644;2022-10-17T04:08:45;20.40;;;7.68;;
30068;SDS011;16894;49.456;10.644;2022-10-17T04:11:15;14.70;;;6.83;;
30068;SDS011;16894;49.456;10.644;2022-10-17T04:13:43;16.55;;;7.75;;
30068;SDS011;16894;49.456;10.644;2022-10-17T04:16:13;22.20;;;6.50;;
30068;SDS011;16894;49.456;10.644;2022-10-17T04:18:40;10.77;;;6.40;;
30068;SDS011;16894;49.456;10.644;2022-10-17T04:21:06;11.57;;;5.97;;
30068;SDS011;16894;49.456;10.644;2022-10-17T04:23:32;13.90;;;6.55;;
30068;SDS011;16894;49.456;10.644;2022-10-17T04:25:59;11.27;;;6.65;;
30068;SDS011;16894;49.456;10.644;2022-10-17T04:28:25;21.63;;;6.65;;
30068;SDS011;16894;49.456;10.644;2022-10-17T04:33:24;11.15;;;8.23;;
30068;SDS011;16894;49.456;10.644;2022-10-17T04:35:57;27.40;;;8.77;;
30068;SDS011;16894;49.456;10.644;2022-10-17T04:38:23;23.75;;;10.30;;
30068;SDS011;16894;49.456;10.644;2022-10-17T04:40:49;24.20;;;9.55;;
30068;SDS011;16894;49.456;10.644;2022-10-17T04:43:15;20.97;;;9.90;;
30068;SDS011;16894;49.456;10.644;2022-10-17T04:45:41;12.20;;;8.40;;
30068;SDS011;16894;49.456;10.644;2022-10-17T04:48:06;15.97;;;7.43;;
30068;SDS011;16894;49.456;10.644;2022-10-17T04:50:32;20.30;;;9.07;;
30068;SDS011;16894;49.456;10.644;2022-10-17T04:52:58;13.90;;;8.10;;
30068;SDS011;16894;49.456;10.644;2022-10-17T04:55:24;22.92;;;8.43;;
30068;SDS011;16894;49.456;10.644;2022-10-17T04:57:49;16.93;;;8.20;;
30068;SDS011;16894;49.456;10.644;2022-10-17T05:00:15;11.00;;;7.73;;
30068;SDS011;16894;49.456;10.644;2022-10-17T05:02:40;22.40;;;7.90;;
30068;SDS011;16894;49.456;10.644;2022-10-17T05:05:06;20.33;;;8.53;;
30068;SDS011;16894;49.456;10.644;2022-10-17T05:07:32;16.33;;;10.48;;
30068;SDS011;16894;49.456;10.644;2022-10-17T05:09:58;20.02;;;11.82;;
30068;SDS011;16894;49.456;10.644;2022-10-17T05:12:23;18.10;;;11.43;;
30068;SDS011;16894;49.456;10.644;2022-10-17T05:14:49;28.48;;;11.63;;
30068;SDS011;16894;49.456;10.644;2022-10-17T05:17:15;23.27;;;11.67;;
30068;SDS011;16894;49.456;10.644;2022-10-17T05:19:40;27.43;;;11.47;;
30068;SDS011;16894;49.456;10.644;2022-10-17T05:22:06;22.07;;;12.93;;
30068;SDS011;16894;49.456;10.644;2022-10-17T05:24:31;25.87;;;11.93;;
30068;SDS011;16894;49.456;10.644;2022-10-17T05:26:57;29.20;;;13.27;;
30068;SDS011;16894;49.456;10.644;2022-10-17T05:29:23;24.70;;;13.03;;
30068;SDS011;16894;49.456;10.644;2022-10-17T05:31:48;33.00;;;11.90;;
30068;SDS011;16894;49.456;10.644;2022-10-17T05:34:14;25.23;;;11.50;;
30068;SDS011;16894;49.456;10.644;2022-10-17T05:36:39;30.87;;;12.93;;
30068;SDS011;16894;49.456;10.644;2022-10-17T05:39:05;31.63;;;12.30;;
30068;SDS011;16894;49.456;10.644;2022-10-17T05:41:31;28.60;;;12.47;;
30068;SDS011;16894;49.456;10.644;2022-10-17T05:43:56;26.70;;;13.33;;
30068;SDS011;16894;49.456;10.644;2022-10-17T05:46:22;32.00;;;14.40;;
30068;SDS011;16894;49.456;10.644;2022-10-17T05:48:48;30.00;;;14.00;;
30068;SDS011;16894;49.456;10.644;2022-10-17T05:51:14;31.47;;;12.10;;
30068;SDS011;16894;49.456;10.644;2022-10-17T05:53:40;23.97;;;13.20;;
30068;SDS011;16894;49.456;10.644;2022-10-17T05:58:33;31.25;;;11.27;;
30068;SDS011;16894;49.456;10.644;2022-10-17T06:01:03;19.87;;;10.57;;
30068;SDS011;16894;49.456;10.644;2022-10-17T06:03:30;18.65;;;10.18;;
30068;SDS011;16894;49.456;10.644;2022-10-17T06:06:01;21.60;;;11.35;;
30068;SDS011;16894;49.456;10.644;2022-10-17T06:08:28;28.70;;;11.40;;
30068;SDS011;16894;49.456;10.644;2022-10-17T06:10:54;15.43;;;9.27;;
30068;SDS011;16894;49.456;10.644;2022-10-17T06:13:20;17.83;;;8.47;;
30068;SDS011;16894;49.456;10.644;2022-10-17T06:15:45;25.87;;;9.13;;
30068;SDS011;16894;49.456;10.644;2022-10-17T06:18:11;19.63;;;9.93;;
30068;SDS011;16894;49.456;10.644;2022-10-17T06:20:36;28.73;;;12.20;;
30068;SDS011;16894;49.456;10.644;2022-10-17T06:25:30;24.70;;;17.15;;
30068;SDS011;16894;49.456;10.644;2022-10-17T06:27:56;21.50;;;11.85;;
30068;SDS011;16894;49.456;10.644;2022-10-17T06:30:21;23.43;;;12.70;;
30068;SDS011;16894;49.456;10.644;2022-10-17T06:32:47;17.47;;;10.80;;
30068;SDS011;16894;49.456;10.644;2022-10-17T06:35:12;17.07;;;9.20;;
30068;SDS011;16894;49.456;10.644;2022-10-17T06:37:38;17.83;;;9.03;;
30068;SDS011;16894;49.456;10.644;2022-10-17T06:40:04;14.67;;;8.80;;
30068;SDS011;16894;49.456;10.644;2022-10-17T06:42:32;22.35;;;9.95;;
30068;SDS011;16894;49.456;10.644;2022-10-17T06:44:58;12.80;;;9.93;;
30068;SDS011;16894;49.456;10.644;2022-10-17T06:47:24;16.33;;;9.47;;
30068;SDS011;16894;49.456;10.644;2022-10-17T06:49:49;21.40;;;10.97;;
30068;SDS011;16894;49.456;10.644;2022-10-17T06:52:15;13.60;;;11.27;;
30068;SDS011;16894;49.456;10.644;2022-10-17T06:54:41;15.40;;;10.20;;
30068;SDS011;16894;49.456;10.644;2022-10-17T06:59:33;20.63;;;11.18;;
30068;SDS011;16894;49.456;10.644;2022-10-17T07:01:59;17.37;;;11.27;;
30068;SDS011;16894;49.456;10.644;2022-10-17T07:04:25;26.83;;;11.70;;
30068;SDS011;16894;49.456;10.644;2022-10-17T07:06:51;22.27;;;9.90;;
30068;SDS011;16894;49.456;10.644;2022-10-17T07:09:17;18.70;;;9.50;;
30068;SDS011;16894;49.456;10.644;2022-10-17T07:11:43;18.07;;;10.03;;
30068;SDS011;16894;49.456;10.644;2022-10-17T07:14:09;18.90;;;9.95;;
30068;SDS011;16894;49.456;10.644;2022-10-17T07:16:34;15.23;;;8.60;;
30068;SDS011;16894;49.456;10.644;2022-10-17T07:19:00;16.35;;;8.52;;
30068;SDS011;16894;49.456;10.644;2022-10-17T07:21:26;13.27;;;8.30;;
30068;SDS011;16894;49.456;10.644;2022-10-17T07:23:51;12.47;;;7.60;;
30068;SDS011;16894;49.456;10.644;2022-10-17T07:26:17;18.47;;;8.33;;
30068;SDS011;16894;49.456;10.644;2022-10-17T07:28:44;23.20;;;10.00;;
30068;SDS011;16894;49.456;10.644;2022-10-17T07:31:15;17.85;;;8.43;;
30068;SDS011;16894;49.456;10.644;2022-10-17T07:33:42;15.57;;;7.80;;
30068;SDS011;16894;49.456;10.644;2022-10-17T07:36:10;20.02;;;8.70;;
30068;SDS011;16894;49.456;10.644;2022-10-17T07:38:36;18.55;;;9.75;;
30068;SDS011;16894;49.456;10.644;2022-10-17T07:41:04;29.23;;;10.93;;
30068;SDS011;16894;49.456;10.644;2022-10-17T07:43:31;19.05;;;11.05;;
30068;SDS011;16894;49.456;10.644;2022-10-17T07:45:56;56.20;;;26.13;;
30068;SDS011;16894;49.456;10.644;2022-10-17T07:48:22;23.30;;;13.95;;
30068;SDS011;16894;49.456;10.644;2022-10-17T07:50:49;15.90;;;9.68;;
30068;SDS011;16894;49.456;10.644;2022-10-17T07:53:15;13.95;;;11.10;;
30068;SDS011;16894;49.456;10.644;2022-10-17T07:55:41;26.48;;;11.20;;
30068;SDS011;16894;49.456;10.644;2022-10-17T07:58:08;16.38;;;12.63;;
30068;SDS011;16894;49.456;10.644;2022-10-17T08:00:35;24.47;;;13.10;;
30068;SDS011;16894;49.456;10.644;2022-10-17T08:05:27;84.22;;;36.47;;
30068;SDS011;16894;49.456;10.644;2022-10-17T08:10:19;36.70;;;20.50;;
30068;SDS011;16894;49.456;10.644;2022-10-17T08:12:45;29.25;;;18.75;;
30068;SDS011;16894;49.456;10.644;2022-10-17T08:15:11;20.53;;;18.43;;
30068;SDS011;16894;49.456;10.644;2022-10-17T08:17:37;18.63;;;16.83;;
30068;SDS011;16894;49.456;10.644;2022-10-17T08:20:03;29.30;;;19.55;;
30068;SDS011;16894;49.456;10.644;2022-10-17T08:22:30;25.15;;;14.85;;
30068;SDS011;16894;49.456;10.644;2022-10-17T08:24:56;15.85;;;12.75;;
30068;SDS011;16894;49.456;10.644;2022-10-17T08:27:22;15.60;;;11.13;;
30068;SDS011;16894;49.456;10.644;2022-10-17T08:29:49;15.07;;;10.68;;
30068;SDS011;16894;49.456;10.644;2022-10-17T08:32:22;16.38;;;8.65;;
30068;SDS011;16894;49.456;10.644;2022-10-17T08:34:50;17.17;;;8.00;;
30068;SDS011;16894;49.456;10.644;2022-10-17T08:37:20;27.75;;;9.77;;
30068;SDS011;16894;49.456;10.644;2022-10-17T08:39:46;14.35;;;7.68;;
30068;SDS011;16894;49.456;10.644;2022-10-17T08:47:59;11.48;;;7.35;;
30068;SDS011;16894;49.456;10.644;2022-10-17T08:55:37;15.70;;;14.38;;
30068;SDS011;16894;49.456;10.644;2022-10-17T08:58:16;23.83;;;16.80;;
30068;SDS011;16894;49.456;10.644;2022-10-17T09:01:05;19.27;;;16.95;;
30068;SDS011;16894;49.456;10.644;2022-10-17T09:06:50;26.42;;;21.77;;
30068;SDS011;16894;49.456;10.644;2022-10-17T09:09:24;20.42;;;17.83;;
30068;SDS011;16894;49.456;10.644;2022-10-17T09:12:14;20.10;;;12.10;;
30068;SDS011;16894;49.456;10.644;2022-10-17T09:14:54;13.23;;;9.85;;
30068;SDS011;16894;49.456;10.644;2022-10-17T09:17:49;11.25;;;8.85;;
30068;SDS011;16894;49.456;10.644;2022-10-17T09:20:23;17.98;;;16.20;;
30068;SDS011;16894;49.456;10.644;2022-10-17T09:22:55;24.50;;;22.42;;
30068;SDS011;16894;49.456;10.644;2022-10-17T09:25:24;20.08;;;18.70;;
30068;SDS011;16894;49.456;10.644;2022-10-17T09:27:53;14.20;;;12.77;;
30068;SDS011;16894;49.456;10.644;2022-10-17T09:33:40;14.75;;;13.65;;
30068;SDS011;16894;49.456;10.644;2022-10-17T09:36:13;13.55;;;12.35;;
30068;SDS011;16894;49.456;10.644;2022-10-17T09:38:46;12.95;;;10.95;;
30068;SDS011;16894;49.456;10.644;2022-10-17T09:41:33;12.52;;;11.43;;
30068;SDS011;16894;49.456;10.644;2022-10-17T09:44:11;10.50;;;9.52;;
30068;SDS011;16894;49.456;10.644;2022-10-17T09:46:38;17.50;;;9.70;;
30068;SDS011;16894;49.456;10.644;2022-10-17T09:49:16;9.50;;;8.30;;
30068;SDS011;16894;49.456;10.644;2022-10-17T09:51:44;21.10;;;8.23;;
30068;SDS011;16894;49.456;10.644;2022-10-17T09:54:25;7.20;;;4.68;;
30068;SDS011;16894;49.456;10.644;2022-10-17T09:57:00;9.13;;;4.97;;
30068;SDS011;16894;49.456;10.644;2022-10-17T09:59:33;5.18;;;4.75;;
30068;SDS011;16894;49.456;10.644;2022-10-17T10:02:33;11.63;;;5.75;;
30068;SDS011;16894;49.456;10.644;2022-10-17T10:04:55;8.43;;;3.50;;
30068;SDS011;16894;49.456;10.644;2022-10-17T10:07:21;9.88;;;3.65;;
30068;SDS011;16894;49.456;10.644;2022-10-17T10:09:48;11.80;;;3.80;;
30068;SDS011;16894;49.456;10.644;2022-10-17T10:14:48;10.35;;;4.55;;
30068;SDS011;16894;49.456;10.644;2022-10-17T10:17:25;7.13;;;4.20;;
30068;SDS011;16894;49.456;10.644;2022-10-17T10:20:02;4.78;;;3.92;;
30068;SDS011;16894;49.456;10.644;2022-10-17T10:25:29;9.20;;;4.72;;
30068;SDS011;16894;49.456;10.644;2022-10-17T10:27:54;6.97;;;5.90;;
30068;SDS011;16894;49.456;10.644;2022-10-17T10:30:22;9.75;;;7.07;;
30068;SDS011;16894;49.456;10.644;2022-10-17T10:32:52;7.35;;;6.65;;
30068;SDS011;16894;49.456;10.644;2022-10-17T10:35:21;8.38;;;6.32;;
30068;SDS011;16894;49.456;10.644;2022-10-17T10:37:54;11.57;;;7.20;;
30068;SDS011;16894;49.456;10.644;2022-10-17T10:40:29;19.63;;;8.40;;
30068;SDS011;16894;49.456;10.644;2022-10-17T10:42:59;10.10;;;6.93;;
30068;SDS011;16894;49.456;10.644;2022-10-17T10:48:01;6.95;;;6.32;;
30068;SDS011;16894;49.456;10.644;2022-10-17T10:50:31;7.53;;;6.82;;
30068;SDS011;16894;49.456;10.644;2022-10-17T10:59:00;10.27;;;5.03;;
30068;SDS011;16894;49.456;10.644;2022-10-17T11:07:16;7.97;;;5.88;;
30068;SDS011;16894;49.456;10.644;2022-10-17T11:12:26;6.68;;;5.72;;
30068;SDS011;16894;49.456;10.644;2022-10-17T11:15:02;8.38;;;4.93;;
30068;SDS011;16894;49.456;10.644;2022-10-17T11:17:47;15.63;;;4.72;;
30068;SDS011;16894;49.456;10.644;2022-10-17T11:25:59;9.43;;;6.38;;
30068;SDS011;16894;49.456;10.644;2022-10-17T11:28:29;8.07;;;6.88;;
30068;SDS011;16894;49.456;10.644;2022-10-17T11:30:59;7.25;;;6.65;;
30068;SDS011;16894;49.456;10.644;2022-10-17T11:33:44;8.57;;;7.15;;
30068;SDS011;16894;49.456;10.644;2022-10-17T11:36:24;8.65;;;6.60;;
30068;SDS011;16894;49.456;10.644;2022-10-17T11:38:54;8.57;;;6.13;;
30068;SDS011;16894;49.456;10.644;2022-10-17T11:41:40;6.00;;;4.60;;
30068;SDS011;16894;49.456;10.644;2022-10-17T11:44:25;5.32;;;4.93;;
30068;SDS011;16894;49.456;10.644;2022-10-17T11:47:05;5.47;;;5.00;;
30068;SDS011;16894;49.456;10.644;2022-10-17T11:55:10;7.05;;;4.40;;
30068;SDS011;16894;49.456;10.644;2022-10-17T12:00:41;6.45;;;4.82;;
30068;SDS011;16894;49.456;10.644;2022-10-17T12:06:54;8.15;;;3.85;;
30068;SDS011;16894;49.456;10.644;2022-10-17T12:09:06;7.75;;;5.00;;
30068;SDS011;16894;49.456;10.644;2022-10-17T12:11:50;8.77;;;5.95;;
30068;SDS011;16894;49.456;10.644;2022-10-17T12:17:04;6.97;;;6.47;;
30068;SDS011;16894;49.456;10.644;2022-10-17T12:19:46;13.07;;;7.30;;
30068;SDS011;16894;49.456;10.644;2022-10-17T12:22:24;13.52;;;7.20;;
30068;SDS011;16894;49.456;10.644;2022-10-17T12:27:32;6.53;;;5.93;;
30068;SDS011;16894;49.456;10.644;2022-10-17T12:30:04;9.05;;;3.58;;
30068;SDS011;16894;49.456;10.644;2022-10-17T12:32:37;3.65;;;2.53;;
30068;SDS011;16894;49.456;10.644;2022-10-17T12:35:36;13.82;;;6.28;;
30068;SDS011;16894;49.456;10.644;2022-10-17T12:45:51;5.85;;;4.65;;
30068;SDS011;16894;49.456;10.644;2022-10-17T12:56:16;2.97;;;2.78;;
30068;SDS011;16894;49.456;10.644;2022-10-17T12:58:45;7.45;;;3.17;;
30068;SDS011;16894;49.456;10.644;2022-10-17T13:01:16;7.03;;;4.45;;
30068;SDS011;16894;49.456;10.644;2022-10-17T13:03:49;7.10;;;4.57;;
30068;SDS011;16894;49.456;10.644;2022-10-17T13:06:26;7.93;;;7.22;;
30068;SDS011;16894;49.456;10.644;2022-10-17T13:08:57;6.72;;;4.60;;
30068;SDS011;16894;49.456;10.644;2022-10-17T13:11:41;5.95;;;4.68;;
30068;SDS011;16894;49.456;10.644;2022-10-17T13:14:11;6.93;;;4.50;;
30068;SDS011;16894;49.456;10.644;2022-10-17T13:16:39;15.45;;;4.90;;
30068;SDS011;16894;49.456;10.644;2022-10-17T13:19:15;7.57;;;5.70;;
30068;SDS011;16894;49.456;10.644;2022-10-17T13:21:52;13.45;;;8.77;;
30068;SDS011;16894;49.456;10.644;2022-10-17T13:24:37;5.88;;;5.47;;
30068;SDS011;16894;49.456;10.644;2022-10-17T13:27:05;7.43;;;6.82;;
30068;SDS011;16894;49.456;10.644;2022-10-17T13:29:45;14.52;;;5.60;;
30068;SDS011;16894;49.456;10.644;2022-10-17T13:32:10;6.45;;;5.78;;
30068;SDS011;16894;49.456;10.644;2022-10-17T13:34:37;8.25;;;6.85;;
30068;SDS011;16894;49.456;10.644;2022-10-17T13:37:06;12.00;;;8.77;;
30068;SDS011;16894;49.456;10.644;2022-10-17T13:39:39;9.93;;;9.00;;
30068;SDS011;16894;49.456;10.644;2022-10-17T13:42:21;18.67;;;11.93;;
30068;SDS011;16894;49.456;10.644;2022-10-17T13:44:55;12.38;;;11.38;;
30068;SDS011;16894;49.456;10.644;2022-10-17T13:47:23;18.45;;;16.35;;
30068;SDS011;16894;49.456;10.644;2022-10-17T13:49:53;31.02;;;19.85;;
30068;SDS011;16894;49.456;10.644;2022-10-17T13:52:20;26.15;;;23.40;;
30068;SDS011;16894;49.456;10.644;2022-10-17T13:54:49;15.63;;;13.95;;
30068;SDS011;16894;49.456;10.644;2022-10-17T13:57:22;27.73;;;20.85;;
30068;SDS011;16894;49.456;10.644;2022-10-17T13:59:51;15.68;;;12.65;;
30068;SDS011;16894;49.456;10.644;2022-10-17T14:02:20;12.27;;;11.00;;
30068;SDS011;16894;49.456;10.644;2022-10-17T14:05:09;5.35;;;4.82;;
30068;SDS011;16894;49.456;10.644;2022-10-17T14:07:43;6.50;;;5.95;;
30068;SDS011;16894;49.456;10.644;2022-10-17T14:10:20;7.15;;;6.55;;
30068;SDS011;16894;49.456;10.644;2022-10-17T14:12:52;18.85;;;14.52;;
30068;SDS011;16894;49.456;10.644;2022-10-17T14:15:20;17.27;;;15.50;;
30068;SDS011;16894;49.456;10.644;2022-10-17T14:17:53;12.32;;;11.02;;
30068;SDS011;16894;49.456;10.644;2022-10-17T14:20:21;16.30;;;14.63;;
30068;SDS011;16894;49.456;10.644;2022-10-17T14:22:48;31.45;;;25.92;;
30068;SDS011;16894;49.456;10.644;2022-10-17T14:25:30;14.75;;;13.43;;
30068;SDS011;16894;49.456;10.644;2022-10-17T14:30:54;5.13;;;4.22;;
30068;SDS011;16894;49.456;10.644;2022-10-17T14:33:53;13.98;;;8.30;;
30068;SDS011;16894;49.456;10.644;2022-10-17T14:36:20;8.57;;;7.68;;
30068;SDS011;16894;49.456;10.644;2022-10-17T14:38:54;10.75;;;7.68;;
30068;SDS011;16894;49.456;10.644;2022-10-17T14:41:22;12.68;;;8.07;;
30068;SDS011;16894;49.456;10.644;2022-10-17T14:43:53;17.92;;;16.23;;
30068;SDS011;16894;49.456;10.644;2022-10-17T14:46:27;24.58;;;22.80;;
30068;SDS011;16894;49.456;10.644;2022-10-17T14:48:54;19.48;;;17.92;;
30068;SDS011;16894;49.456;10.644;2022-10-17T14:51:27;9.60;;;8.40;;
30068;SDS011;16894;49.456;10.644;2022-10-17T14:56:27;12.40;;;5.10;;
30068;SDS011;16894;49.456;10.644;2022-10-17T14:58:59;6.18;;;5.28;;
30068;SDS011;16894;49.456;10.644;2022-10-17T15:01:27;9.73;;;6.53;;
30068;SDS011;16894;49.456;10.644;2022-10-17T15:03:53;9.20;;;6.05;;
30068;SDS011;16894;49.456;10.644;2022-10-17T15:06:52;9.75;;;6.10;;
30068;SDS011;16894;49.456;10.644;2022-10-17T15:09:17;6.43;;;5.93;;
30068;SDS011;16894;49.456;10.644;2022-10-17T15:11:43;6.90;;;5.65;;
30068;SDS011;16894;49.456;10.644;2022-10-17T15:14:08;8.77;;;6.00;;
30068;SDS011;16894;49.456;10.644;2022-10-17T15:16:34;7.63;;;6.20;;
30068;SDS011;16894;49.456;10.644;2022-10-17T15:19:00;6.60;;;5.72;;
30068;SDS011;16894;49.456;10.644;2022-10-17T15:21:26;6.55;;;6.00;;
30068;SDS011;16894;49.456;10.644;2022-10-17T15:23:53;8.27;;;6.90;;
30068;SDS011;16894;49.456;10.644;2022-10-17T15:26:19;10.10;;;5.70;;
30068;SDS011;16894;49.456;10.644;2022-10-17T15:28:47;6.97;;;6.45;;
30068;SDS011;16894;49.456;10.644;2022-10-17T15:31:15;8.07;;;7.40;;
30068;SDS011;16894;49.456;10.644;2022-10-17T15:33:41;10.05;;;8.27;;
30068;SDS011;16894;49.456;10.644;2022-10-17T15:36:21;9.25;;;8.18;;
30068;SDS011;16894;49.456;10.644;2022-10-17T15:38:52;10.40;;;8.88;;
30068;SDS011;16894;49.456;10.644;2022-10-17T15:41:20;11.60;;;8.70;;
30068;SDS011;16894;49.456;10.644;2022-10-17T15:43:46;10.98;;;9.77;;
30068;SDS011;16894;49.456;10.644;2022-10-17T15:48:41;10.40;;;6.18;;
30068;SDS011;16894;49.456;10.644;2022-10-17T15:51:07;8.70;;;8.07;;
30068;SDS011;16894;49.456;10.644;2022-10-17T15:53:33;10.82;;;8.75;;
30068;SDS011;16894;49.456;10.644;2022-10-17T15:55:59;18.73;;;8.57;;
30068;SDS011;16894;49.456;10.644;2022-10-17T15:58:26;9.05;;;8.35;;
30068;SDS011;16894;49.456;10.644;2022-10-17T16:00:57;10.55;;;9.50;;
30068;SDS011;16894;49.456;10.644;2022-10-17T16:03:23;10.85;;;9.30;;
30068;SDS011;16894;49.456;10.644;2022-10-17T16:05:48;13.07;;;10.33;;
30068;SDS011;16894;49.456;10.644;2022-10-17T16:08:14;10.43;;;9.67;;
30068;SDS011;16894;49.456;10.644;2022-10-17T16:10:39;13.20;;;11.90;;
30068;SDS011;16894;49.456;10.644;2022-10-17T16:13:07;12.27;;;10.68;;
30068;SDS011;16894;49.456;10.644;2022-10-17T16:15:40;11.43;;;10.55;;
30068;SDS011;16894;49.456;10.644;2022-10-17T16:18:06;14.63;;;12.85;;
30068;SDS011;16894;49.456;10.644;2022-10-17T16:20:32;21.73;;;19.13;;
30068;SDS011;16894;49.456;10.644;2022-10-17T16:22:58;25.23;;;14.90;;
30068;SDS011;16894;49.456;10.644;2022-10-17T16:25:27;28.17;;;14.18;;
30068;SDS011;16894;49.456;10.644;2022-10-17T16:27:55;15.55;;;11.80;;
30068;SDS011;16894;49.456;10.644;2022-10-17T16:30:22;16.20;;;10.63;;
30068;SDS011;16894;49.456;10.644;2022-10-17T16:32:49;12.13;;;11.13;;
30068;SDS011;16894;49.456;10.644;2022-10-17T16:35:18;13.18;;;11.90;;
30068;SDS011;16894;49.456;10.644;2022-10-17T16:37:45;12.43;;;11.57;;
30068;SDS011;16894;49.456;10.644;2022-10-17T16:40:11;24.65;;;13.32;;
30068;SDS011;16894;49.456;10.644;2022-10-17T16:42:37;25.42;;;14.50;;
30068;SDS011;16894;49.456;10.644;2022-10-17T16:45:03;29.83;;;18.02;;
30068;SDS011;16894;49.456;10.644;2022-10-17T16:47:29;23.27;;;20.95;;
30068;SDS011;16894;49.456;10.644;2022-10-17T16:49:55;25.63;;;22.87;;
30068;SDS011;16894;49.456;10.644;2022-10-17T16:52:20;23.07;;;20.97;;
30068;SDS011;16894;49.456;10.644;2022-10-17T16:54:46;41.47;;;20.33;;
30068;SDS011;16894;49.456;10.644;2022-10-17T16:57:11;28.27;;;19.67;;
30068;SDS011;16894;49.456;10.644;2022-10-17T16:59:37;28.63;;;23.43;;
30068;SDS011;16894;49.456;10.644;2022-10-17T17:02:03;44.47;;;18.73;;